White Sulphur Springs, Montana
Current Conditions -  °F | °C
As of 4:53 AM on Friday 24 Oct 2014 (Local Time) from KHLN Reporting Station
Overcast Overcast  
Wind Chill: 45°   Ceiling: 8000
Heat Index: 49°   Visibility: 10mi
Dew Point: 38°   Wind: 8mph
Humidity: 66%   Direction: 260°W
Pressure: 29.99"   Gusts: NA
Location:  46.55°N, 110.9°W
Report Text: KHLN 241053Z AUTO 26007KT 10SM OVC080 09/03 A2999 RMK AO2 SLP157 T00940033
Loading
Personal Weather Stations






























Interactive Weather Map
Tropical Storm Tracking
New forecast layout! Learn more

10-Day Weather Forecast

Advertisements
Track Severe Weather on mobile